Terminal Aerodrome Forecast
Issued by NWS

Home | Current Version | Previous Version | Text Only | Print | Product List | Glossary On
Versions: 1 2 3 4 5 6 7 8 9 10 11 12 13 14 15 16 17 18 19 20 21 22 23 24
000
FTUS44 KOUN 231126
TAFWWR
TAF
KWWR 231126Z 2312/2412 12011KT 1/2SM FG OVC002
     FM231300 13012G20KT 2SM +TSRA BR SCT003 OVC025CB
      TEMPO 2313/2315 VRB13G20KT 1/2SM +TSRA FG OVC003CB
     FM231800 14014G20KT 3SM -TSRA BR SCT003 OVC025CB
     FM240100 16011KT 4SM BR OVC005=

USA.gov is the U.S. government's official web portal to all federal, state and local government web resources and services.